Time;durP1;ratioP1;P1;durP2;ratioP2;P2;SDS_P1;SDS_P2;PMS_P1;PMS_P2;Temp;Humidity;BMP_temperature;BMP_pressure;BME280_temperature;BME280_humidity;BME280_pressure;Samples;Min_cycle;Max_cycle;Signal;HPM_P1;HPM_P2
2023/04/12 00:01:15;;;;;;;25.20;16.17;;;;;;;;;;6230759;28;20061;-90
2023/04/12 00:04:15;;;;;;;28.33;15.97;;;;;;;;;;6219369;28;20113;-90
2023/04/12 00:07:17;;;;;;;24.63;14.87;;;;;;;;;;6212162;28;20026;-90
2023/04/12 00:10:17;;;;;;;26.20;15.38;;;;;;;;;;6205578;28;20053;-89
2023/04/12 00:13:18;;;;;;;27.50;16.37;;;;;;;;;;6200081;28;20030;-90
2023/04/12 00:16:18;;;;;;;23.40;13.13;;;;;;;;;;6195705;28;20019;-90
2023/04/12 00:19:19;;;;;;;21.13;12.90;;;;;;;;;;6196974;28;20006;-89
2023/04/12 00:22:19;;;;;;;20.73;12.27;;;;;;;;;;6196431;28;20018;-89
2023/04/12 00:25:19;;;;;;;21.30;14.83;;;;;;;;;;6210109;28;20053;-90
2023/04/12 00:28:20;;;;;;;20.73;12.70;;;;;;;;;;6201505;28;20489;-90
2023/04/12 00:31:20;;;;;;;19.00;11.77;;;;;;;;;;6204734;28;20022;-90
2023/04/12 00:34:20;;;;;;;20.23;11.23;;;;;;;;;;6209078;28;20011;-90
2023/04/12 00:37:20;;;;;;;14.97;9.03;;;;;;;;;;6189349;28;20030;-90
2023/04/12 00:40:21;;;;;;;17.80;9.97;;;;;;;;;;6198530;28;20032;-90
2023/04/12 00:43:22;;;;;;;17.57;9.27;;;;;;;;;;6225346;28;20023;-90
2023/04/12 00:46:22;;;;;;;14.88;8.98;;;;;;;;;;6213055;28;20033;-89
2023/04/12 00:49:23;;;;;;;15.33;8.30;;;;;;;;;;6212478;28;20030;-90
2023/04/12 00:52:24;;;;;;;13.63;8.93;;;;;;;;;;6203324;28;20023;-91
2023/04/12 00:55:24;;;;;;;17.83;9.80;;;;;;;;;;6197805;28;20079;-90
2023/04/12 00:58:24;;;;;;;14.87;7.73;;;;;;;;;;6213307;28;20025;-90
2023/04/12 01:01:26;;;;;;;14.87;9.40;;;;;;;;;;6216068;28;20018;-90
2023/04/12 01:04:27;;;;;;;15.27;9.32;;;;;;;;;;6202938;28;20027;-90
2023/04/12 01:07:43;;;;;;;18.30;9.87;;;;;;;;;;6217642;28;20110;-91
2023/04/12 01:10:56;;;;;;;16.08;10.20;;;;;;;;;;6201890;28;20031;-91
2023/04/12 01:13:59;;;;;;;16.90;9.50;;;;;;;;;;6200410;28;20245;-91
2023/04/12 01:17:03;;;;;;;15.93;9.85;;;;;;;;;;6221370;28;20019;-90
2023/04/12 01:20:12;;;;;;;17.40;11.90;;;;;;;;;;6222499;28;20023;-90
2023/04/12 01:23:24;;;;;;;20.58;12.55;;;;;;;;;;6207367;28;20029;-91
2023/04/12 01:26:40;;;;;;;18.02;11.38;;;;;;;;;;6208428;28;20050;-91
2023/04/12 01:29:41;;;;;;;20.67;13.20;;;;;;;;;;6201439;28;20030;-91
2023/04/12 01:32:44;;;;;;;24.07;12.67;;;;;;;;;;6207120;28;20027;-91
2023/04/12 01:35:45;;;;;;;18.58;11.27;;;;;;;;;;6205622;28;20046;-90
2023/04/12 01:38:46;;;;;;;18.95;11.35;;;;;;;;;;6197698;28;20000;-91
2023/04/12 01:41:47;;;;;;;26.07;12.77;;;;;;;;;;6206262;28;20041;-91
2023/04/12 01:44:49;;;;;;;18.67;10.68;;;;;;;;;;6202155;28;20026;-91
2023/04/12 01:47:49;;;;;;;17.05;10.30;;;;;;;;;;6208121;28;20031;-91
2023/04/12 01:51:05;;;;;;;15.40;9.73;;;;;;;;;;6223338;28;20026;-91
2023/04/12 01:54:10;;;;;;;17.10;10.65;;;;;;;;;;6229247;28;20037;-90
2023/04/12 01:57:13;;;;;;;15.50;9.50;;;;;;;;;;6202543;28;20041;-90
2023/04/12 02:00:14;;;;;;;17.17;8.80;;;;;;;;;;6221186;28;20010;-91
2023/04/12 02:03:15;;;;;;;16.10;9.98;;;;;;;;;;6213808;28;20019;-92
2023/04/12 02:06:18;;;;;;;17.17;9.70;;;;;;;;;;6215930;28;20082;-91
2023/04/12 02:09:18;;;;;;;16.08;7.70;;;;;;;;;;6213980;28;20015;-90
2023/04/12 02:12:19;;;;;;;13.80;8.20;;;;;;;;;;6213789;28;20025;-91
2023/04/12 02:15:20;;;;;;;16.53;9.00;;;;;;;;;;6215615;28;20090;-90
2023/04/12 02:18:20;;;;;;;13.90;9.30;;;;;;;;;;6230870;22;20058;-82
2023/04/12 02:21:20;;;;;;;13.63;9.43;;;;;;;;;;6153456;28;20023;-84
2023/04/12 02:24:21;;;;;;;14.60;8.17;;;;;;;;;;6147469;28;20012;-84
2023/04/12 02:27:21;;;;;;;18.17;9.30;;;;;;;;;;6149615;28;20023;-84
2023/04/12 02:30:21;;;;;;;15.73;9.57;;;;;;;;;;6148525;28;20069;-84
2023/04/12 02:33:32;;;;;;;14.13;9.30;;;;;;;;;;6148122;28;20483;-84
2023/04/12 02:36:36;;;;;;;22.00;12.20;;;;;;;;;;6135674;28;20019;-85
2023/04/12 02:39:36;;;;;;;21.30;12.45;;;;;;;;;;6141554;28;20027;-84
2023/04/12 02:42:37;;;;;;;18.73;10.63;;;;;;;;;;6145949;28;20035;-82
2023/04/12 02:45:37;;;;;;;15.70;8.97;;;;;;;;;;6144054;29;20014;-84
2023/04/12 02:48:37;;;;;;;19.20;11.70;;;;;;;;;;6147234;29;20019;-83
2023/04/12 02:51:38;;;;;;;24.03;12.10;;;;;;;;;;6130656;29;20030;-83
2023/04/12 02:54:38;;;;;;;19.20;11.50;;;;;;;;;;6130497;29;20020;-83
2023/04/12 02:57:38;;;;;;;20.33;11.77;;;;;;;;;;6147538;29;20024;-82
2023/04/12 03:00:38;;;;;;;15.20;8.90;;;;;;;;;;6150075;28;20066;-84
2023/04/12 03:03:39;;;;;;;15.50;9.33;;;;;;;;;;6152501;29;20031;-84
2023/04/12 03:06:51;;;;;;;20.17;10.43;;;;;;;;;;6151536;28;20605;-83
2023/04/12 03:09:51;;;;;;;13.85;7.68;;;;;;;;;;6151400;28;20031;-82
2023/04/12 03:12:53;;;;;;;19.23;9.50;;;;;;;;;;6151804;29;20442;-84
2023/04/12 03:15:54;;;;;;;18.33;10.35;;;;;;;;;;6149804;29;20493;-84
2023/04/12 03:18:55;;;;;;;12.55;7.13;;;;;;;;;;6150052;29;20059;-81
2023/04/12 03:21:56;;;;;;;16.27;9.13;;;;;;;;;;6152051;28;20027;-84
2023/04/12 03:24:56;;;;;;;14.25;8.23;;;;;;;;;;6134811;29;20086;-84
2023/04/12 03:27:56;;;;;;;15.17;8.50;;;;;;;;;;6151346;29;20122;-84
2023/04/12 03:30:57;;;;;;;15.50;9.77;;;;;;;;;;6152152;28;20079;-84
2023/04/12 03:33:57;;;;;;;17.93;10.47;;;;;;;;;;6150577;29;20070;-84
2023/04/12 03:36:57;;;;;;;18.10;9.82;;;;;;;;;;6127810;29;20015;-84
2023/04/12 03:39:58;;;;;;;22.90;10.83;;;;;;;;;;6151497;28;20020;-82
2023/04/12 03:42:58;;;;;;;20.83;10.73;;;;;;;;;;6151623;29;20123;-84
2023/04/12 03:45:58;;;;;;;20.73;9.43;;;;;;;;;;6146014;29;20035;-85
2023/04/12 03:48:58;;;;;;;15.40;9.27;;;;;;;;;;6150374;29;20034;-83
2023/04/12 03:51:58;;;;;;;19.00;10.30;;;;;;;;;;6152495;28;20457;-83
2023/04/12 03:54:59;;;;;;;22.20;11.77;;;;;;;;;;6132370;29;20088;-84
2023/04/12 03:58:00;;;;;;;13.70;9.30;;;;;;;;;;6148116;29;20055;-85
2023/04/12 04:01:04;;;;;;;18.60;10.60;;;;;;;;;;6149569;28;20032;-84
2023/04/12 04:04:05;;;;;;;16.95;9.75;;;;;;;;;;6149802;29;20023;-82
2023/04/12 04:07:06;;;;;;;18.43;10.57;;;;;;;;;;6133509;29;20117;-84
2023/04/12 04:10:07;;;;;;;19.50;10.37;;;;;;;;;;6143535;28;20325;-84
2023/04/12 04:13:07;;;;;;;14.43;8.80;;;;;;;;;;6131147;29;20417;-84
2023/04/12 04:16:10;;;;;;;21.50;12.65;;;;;;;;;;6149052;29;20047;-84
2023/04/12 04:19:11;;;;;;;23.88;12.93;;;;;;;;;;6150339;29;20050;-83
2023/04/12 04:22:11;;;;;;;21.57;12.30;;;;;;;;;;6149663;28;20497;-84
2023/04/12 04:25:13;;;;;;;21.63;14.33;;;;;;;;;;6151520;29;20046;-83
2023/04/12 04:28:14;;;;;;;24.40;14.23;;;;;;;;;;6137994;29;20496;-84
2023/04/12 04:31:16;;;;;;;24.75;13.25;;;;;;;;;;6166066;28;20046;-77
2023/04/12 04:34:17;;;;;;;25.55;14.55;;;;;;;;;;6179869;28;20047;-83
2023/04/12 04:37:18;;;;;;;23.83;14.68;;;;;;;;;;6176388;28;20023;-84
2023/04/12 04:40:20;;;;;;;24.30;14.43;;;;;;;;;;6151625;29;20014;-84
2023/04/12 04:43:20;;;;;;;23.52;13.80;;;;;;;;;;6150823;29;20034;-83
2023/04/12 04:46:21;;;;;;;29.70;16.00;;;;;;;;;;6143197;29;20397;-85
2023/04/12 04:49:21;;;;;;;22.90;14.30;;;;;;;;;;6150308;29;20139;-84
2023/04/12 04:52:21;;;;;;;23.57;12.97;;;;;;;;;;6147767;28;20035;-84
2023/04/12 04:55:26;;;;;;;27.30;15.00;;;;;;;;;;6153996;29;20007;-84
2023/04/12 04:58:26;;;;;;;25.02;14.50;;;;;;;;;;6149132;29;20098;-83
2023/04/12 05:01:28;;;;;;;28.53;15.73;;;;;;;;;;6150612;29;20015;-82
2023/04/12 05:04:28;;;;;;;25.42;14.63;;;;;;;;;;6140793;29;20012;-83
2023/04/12 05:07:28;;;;;;;21.88;13.18;;;;;;;;;;6145101;28;20113;-83
2023/04/12 05:10:28;;;;;;;20.67;12.97;;;;;;;;;;6124948;29;20027;-83
2023/04/12 05:13:29;;;;;;;17.73;11.18;;;;;;;;;;6152219;29;20075;-83
2023/04/12 05:16:29;;;;;;;20.00;11.13;;;;;;;;;;6161731;29;20015;-82
2023/04/12 05:19:29;;;;;;;16.27;10.25;;;;;;;;;;6143583;28;20524;-83
2023/04/12 05:22:29;;;;;;;19.10;11.17;;;;;;;;;;6149350;28;20038;-83
2023/04/12 05:25:30;;;;;;;18.03;11.37;;;;;;;;;;6149934;29;20474;-84
2023/04/12 05:28:30;;;;;;;18.50;11.10;;;;;;;;;;6152858;29;20023;-82
2023/04/12 05:31:31;;;;;;;20.90;12.17;;;;;;;;;;6167182;28;20486;-83
2023/04/12 05:34:31;;;;;;;22.80;13.03;;;;;;;;;;6162226;29;20027;-84
2023/04/12 05:37:31;;;;;;;28.00;12.40;;;;;;;;;;6136324;29;20014;-85
2023/04/12 05:40:31;;;;;;;19.27;10.53;;;;;;;;;;6148027;29;20417;-84
2023/04/12 05:43:36;;;;;;;27.93;14.60;;;;;;;;;;6147816;29;20041;-82
2023/04/12 05:46:36;;;;;;;32.15;14.27;;;;;;;;;;6146962;29;20034;-82
2023/04/12 05:49:36;;;;;;;24.30;14.30;;;;;;;;;;6147228;28;20038;-84
2023/04/12 05:52:37;;;;;;;21.67;13.40;;;;;;;;;;6147358;29;20544;-81
2023/04/12 05:55:37;;;;;;;21.97;12.13;;;;;;;;;;6145692;28;20024;-83
2023/04/12 05:58:37;;;;;;;22.30;12.35;;;;;;;;;;6144622;29;20119;-83
2023/04/12 06:01:41;;;;;;;25.90;13.00;;;;;;;;;;6147084;29;20034;-83
2023/04/12 06:04:41;;;;;;;23.83;13.43;;;;;;;;;;6146900;29;20055;-83
2023/04/12 06:07:46;;;;;;;25.60;13.00;;;;;;;;;;6129930;29;20474;-82
2023/04/12 06:10:47;;;;;;;22.25;13.05;;;;;;;;;;6147045;29;20019;-83
2023/04/12 06:13:47;;;;;;;22.17;13.43;;;;;;;;;;6147472;29;20395;-83
2023/04/12 06:16:48;;;;;;;31.27;17.57;;;;;;;;;;6146921;29;20023;-83
2023/04/12 06:19:49;;;;;;;32.50;20.35;;;;;;;;;;6147508;28;20074;-84
2023/04/12 06:22:49;;;;;;;26.77;15.13;;;;;;;;;;6147402;28;20046;-83
2023/04/12 06:25:49;;;;;;;20.57;12.97;;;;;;;;;;6147243;29;20117;-83
2023/04/12 06:28:49;;;;;;;19.27;13.20;;;;;;;;;;6147121;29;20015;-83
2023/04/12 06:31:50;;;;;;;21.77;13.63;;;;;;;;;;6149495;28;20035;-83
2023/04/12 06:34:50;;;;;;;23.67;12.73;;;;;;;;;;6147455;28;20070;-83
2023/04/12 06:37:50;;;;;;;20.93;13.27;;;;;;;;;;6150290;28;20496;-83
2023/04/12 06:40:50;;;;;;;26.33;13.10;;;;;;;;;;6151505;29;20020;-82
2023/04/12 06:43:51;;;;;;;23.80;13.30;;;;;;;;;;6150871;29;20031;-83
2023/04/12 06:46:51;;;;;;;34.42;17.65;;;;;;;;;;6151013;29;20481;-83
2023/04/12 06:49:54;;;;;;;28.87;15.50;;;;;;;;;;6150121;28;20087;-83
2023/04/12 06:52:54;;;;;;;91.82;37.75;;;;;;;;;;6150844;29;20023;-83
2023/04/12 06:55:54;;;;;;;77.50;33.00;;;;;;;;;;6151816;29;20481;-83
2023/04/12 06:58:55;;;;;;;37.20;19.47;;;;;;;;;;6144085;29;20043;-83
2023/04/12 07:01:55;;;;;;;30.63;15.80;;;;;;;;;;6151228;29;20027;-83
2023/04/12 07:04:55;;;;;;;22.77;13.30;;;;;;;;;;6152204;29;20367;-84
2023/04/12 07:07:55;;;;;;;25.38;15.25;;;;;;;;;;6153904;28;20117;-83
2023/04/12 07:10:57;;;;;;;29.77;16.48;;;;;;;;;;6158678;29;20031;-83
2023/04/12 07:14:00;;;;;;;25.88;15.88;;;;;;;;;;6156979;29;20035;-83
2023/04/12 07:17:00;;;;;;;28.35;15.02;;;;;;;;;;6151388;29;20015;-83
2023/04/12 07:20:01;;;;;;;20.00;12.97;;;;;;;;;;6151426;28;20039;-82
2023/04/12 07:23:01;;;;;;;22.13;13.33;;;;;;;;;;6151133;29;20105;-83
2023/04/12 07:26:01;;;;;;;22.30;13.97;;;;;;;;;;6151601;29;20405;-83
2023/04/12 07:29:02;;;;;;;20.45;12.48;;;;;;;;;;6150624;29;20045;-83
2023/04/12 07:32:03;;;;;;;21.65;12.18;;;;;;;;;;6152268;28;20030;-83
2023/04/12 07:35:03;;;;;;;20.10;12.87;;;;;;;;;;6150636;28;20587;-84
2023/04/12 07:38:03;;;;;;;16.63;11.10;;;;;;;;;;6148709;29;20030;-82
2023/04/12 07:41:04;;;;;;;16.83;10.33;;;;;;;;;;6152961;29;20028;-84
2023/04/12 07:44:04;;;;;;;16.00;10.20;;;;;;;;;;6151363;29;20027;-84
2023/04/12 07:47:04;;;;;;;20.27;9.70;;;;;;;;;;6137867;29;20034;-84
2023/04/12 07:50:05;;;;;;;15.70;9.13;;;;;;;;;;6159693;28;20022;-83
2023/04/12 07:53:21;;;;;;;15.30;10.83;;;;;;;;;;6181198;28;20029;-83
2023/04/12 07:56:21;;;;;;;12.80;8.43;;;;;;;;;;6172383;28;20277;-81
2023/04/12 07:59:22;;;;;;;13.60;9.17;;;;;;;;;;6154939;29;20458;-84
2023/04/12 08:02:25;;;;;;;14.73;6.90;;;;;;;;;;6154501;28;20545;-84
2023/04/12 08:05:25;;;;;;;12.55;8.40;;;;;;;;;;6150632;28;20398;-85
2023/04/12 08:08:26;;;;;;;15.17;8.17;;;;;;;;;;6150995;29;20027;-85
2023/04/12 08:11:26;;;;;;;12.63;9.43;;;;;;;;;;6145262;29;20019;-82
2023/04/12 08:14:26;;;;;;;11.90;7.97;;;;;;;;;;6150290;29;20027;-84
2023/04/12 08:17:27;;;;;;;17.67;8.30;;;;;;;;;;6149440;29;20070;-83
2023/04/12 08:20:27;;;;;;;12.02;8.20;;;;;;;;;;6120570;28;20043;-85
2023/04/12 08:23:28;;;;;;;10.43;7.40;;;;;;;;;;6126319;29;20043;-77
2023/04/12 08:26:28;;;;;;;16.73;10.30;;;;;;;;;;6124839;29;20028;-84
2023/04/12 08:29:29;;;;;;;16.37;9.97;;;;;;;;;;6124074;29;20026;-84
2023/04/12 08:32:29;;;;;;;16.83;10.07;;;;;;;;;;6125548;29;20031;-85
2023/04/12 08:35:29;;;;;;;14.53;9.33;;;;;;;;;;6125956;29;20079;-83
2023/04/12 08:38:30;;;;;;;12.00;8.03;;;;;;;;;;6138585;29;20047;-85
2023/04/12 08:41:31;;;;;;;12.60;7.23;;;;;;;;;;6122870;29;20024;-82
2023/04/12 08:44:37;;;;;;;10.45;5.70;;;;;;;;;;6138562;29;20081;-85
2023/04/12 08:47:38;;;;;;;8.35;6.05;;;;;;;;;;6119334;29;20040;-83
2023/04/12 08:50:40;;;;;;;8.80;6.20;;;;;;;;;;6127970;29;20063;-83
2023/04/12 08:53:41;;;;;;;12.23;8.52;;;;;;;;;;6135583;29;20027;-83
2023/04/12 08:56:42;;;;;;;12.70;7.07;;;;;;;;;;6135056;29;20028;-84
2023/04/12 08:59:44;;;;;;;11.35;6.00;;;;;;;;;;6128354;29;20035;-84
2023/04/12 09:02:45;;;;;;;8.15;4.88;;;;;;;;;;6128569;28;20056;-85
2023/04/12 09:05:46;;;;;;;8.88;5.82;;;;;;;;;;6121933;29;20031;-79
2023/04/12 09:08:53;;;;;;;12.10;5.80;;;;;;;;;;6126152;29;20034;-83
2023/04/12 09:12:05;;;;;;;6.88;5.20;;;;;;;;;;6163028;29;20034;-83
2023/04/12 09:15:08;;;;;;;10.88;5.72;;;;;;;;;;6131260;29;20114;-81
2023/04/12 09:18:10;;;;;;;8.63;4.57;;;;;;;;;;6126393;29;20490;-85
2023/04/12 09:21:10;;;;;;;7.28;5.18;;;;;;;;;;6145111;28;20054;-84
2023/04/12 09:24:12;;;;;;;8.63;4.23;;;;;;;;;;6142717;28;20435;-85
2023/04/12 09:27:12;;;;;;;11.95;5.95;;;;;;;;;;6147739;29;20701;-85
2023/04/12 09:30:15;;;;;;;5.20;2.70;;;;;;;;;;6148034;29;20023;-85
2023/04/12 09:33:15;;;;;;;8.95;4.95;;;;;;;;;;6146540;29;20073;-85
2023/04/12 09:36:17;;;;;;;7.00;3.80;;;;;;;;;;6144029;29;20023;-85
2023/04/12 09:39:18;;;;;;;5.20;3.42;;;;;;;;;;6147131;29;20398;-84
2023/04/12 09:42:18;;;;;;;4.00;3.10;;;;;;;;;;6146083;29;20054;-84
2023/04/12 09:45:23;;;;;;;5.57;3.33;;;;;;;;;;6147190;29;20035;-81
2023/04/12 09:48:25;;;;;;;6.60;3.83;;;;;;;;;;6148335;28;20174;-85
2023/04/12 09:51:27;;;;;;;6.40;3.85;;;;;;;;;;6148916;28;20031;-85
2023/04/12 09:54:27;;;;;;;5.43;3.40;;;;;;;;;;6146195;28;20026;-85
2023/04/12 09:57:28;;;;;;;8.27;4.20;;;;;;;;;;6147551;28;20024;-85
2023/04/12 10:00:29;;;;;;;6.87;3.80;;;;;;;;;;6149567;28;20030;-85
2023/04/12 10:03:29;;;;;;;5.70;2.92;;;;;;;;;;6146055;29;20016;-84
2023/04/12 10:06:31;;;;;;;5.57;3.47;;;;;;;;;;6149829;28;20078;-85
2023/04/12 10:09:32;;;;;;;5.43;2.72;;;;;;;;;;6147306;28;20367;-85
2023/04/12 10:12:32;;;;;;;5.77;2.90;;;;;;;;;;6134316;29;20020;-85
2023/04/12 10:15:35;;;;;;;4.80;2.97;;;;;;;;;;6152509;28;20078;-86
2023/04/12 10:18:38;;;;;;;3.08;2.22;;;;;;;;;;6158139;28;20011;-85
2023/04/12 10:21:38;;;;;;;4.45;2.75;;;;;;;;;;6152498;28;20039;-86
2023/04/12 10:24:39;;;;;;;4.83;3.00;;;;;;;;;;6151711;29;20118;-85
2023/04/12 10:27:41;;;;;;;4.90;2.80;;;;;;;;;;6151556;29;20725;-85
2023/04/12 10:30:41;;;;;;;3.65;2.58;;;;;;;;;;6151550;29;20645;-86
2023/04/12 10:33:42;;;;;;;6.57;3.33;;;;;;;;;;6151208;29;20034;-86
2023/04/12 10:36:51;;;;;;;6.80;2.90;;;;;;;;;;6151670;29;20023;-86
2023/04/12 10:39:52;;;;;;;4.93;2.88;;;;;;;;;;6152136;29;20070;-86
2023/04/12 10:43:11;;;;;;;4.43;2.77;;;;;;;;;;6150698;29;20156;-82
2023/04/12 10:46:30;;;;;;;2.40;2.00;;;;;;;;;;6149418;29;20019;-85
2023/04/12 10:49:31;;;;;;;4.65;2.97;;;;;;;;;;6145603;28;20102;-85
2023/04/12 10:52:31;;;;;;;6.20;2.95;;;;;;;;;;6151350;29;20031;-85
2023/04/12 10:55:32;;;;;;;7.05;2.83;;;;;;;;;;6151060;29;20023;-86
2023/04/12 10:58:47;;;;;;;6.80;3.30;;;;;;;;;;6147062;28;20015;-84
2023/04/12 11:02:03;;;;;;;5.88;2.60;;;;;;;;;;6147367;28;20026;-86
2023/04/12 11:05:07;;;;;;;9.23;3.95;;;;;;;;;;6150737;29;20086;-86
2023/04/12 11:08:07;;;;;;;6.07;3.38;;;;;;;;;;6148276;29;20023;-85
2023/04/12 11:11:21;;;;;;;5.70;3.60;;;;;;;;;;6148632;29;20031;-86
2023/04/12 11:14:26;;;;;;;3.88;3.13;;;;;;;;;;6151428;29;20054;-87
2023/04/12 11:17:27;;;;;;;8.23;4.10;;;;;;;;;;6145963;28;20341;-85
2023/04/12 11:20:27;;;;;;;7.43;3.80;;;;;;;;;;6149945;28;20051;-85
2023/04/12 11:23:28;;;;;;;7.77;4.27;;;;;;;;;;6144168;29;20031;-84
2023/04/12 11:26:29;;;;;;;6.30;3.90;;;;;;;;;;6147292;29;20031;-86
2023/04/12 11:29:33;;;;;;;7.10;4.82;;;;;;;;;;6152964;29;20035;-86
2023/04/12 11:32:34;;;;;;;8.73;5.10;;;;;;;;;;6154003;29;20402;-84
2023/04/12 11:35:34;;;;;;;10.60;5.47;;;;;;;;;;6170529;28;20082;-83
2023/04/12 11:38:36;;;;;;;10.70;5.03;;;;;;;;;;6165639;28;19999;-84
2023/04/12 11:41:37;;;;;;;6.43;4.65;;;;;;;;;;6176015;28;20023;-84
2023/04/12 11:44:39;;;;;;;7.30;4.43;;;;;;;;;;6146822;28;20398;-83
2023/04/12 11:47:45;;;;;;;6.00;4.60;;;;;;;;;;6147581;29;20034;-85
2023/04/12 11:50:45;;;;;;;6.68;4.13;;;;;;;;;;6149293;28;20038;-85
2023/04/12 11:53:50;;;;;;;10.80;4.53;;;;;;;;;;6148218;28;20494;-84
2023/04/12 11:56:51;;;;;;;5.50;3.72;;;;;;;;;;6132677;29;20090;-84
2023/04/12 11:59:52;;;;;;;5.33;4.23;;;;;;;;;;6148636;29;20020;-84
2023/04/12 12:02:54;;;;;;;6.35;4.40;;;;;;;;;;6149221;29;20023;-81
2023/04/12 12:05:54;;;;;;;8.52;4.22;;;;;;;;;;6143856;28;20027;-82
2023/04/12 12:08:54;;;;;;;8.70;4.37;;;;;;;;;;6144304;29;20042;-84
2023/04/12 12:11:56;;;;;;;11.40;5.17;;;;;;;;;;6143311;28;20434;-83
2023/04/12 12:14:58;;;;;;;17.60;6.35;;;;;;;;;;6146179;29;20034;-84
2023/04/12 12:18:00;;;;;;;9.40;5.18;;;;;;;;;;6147310;29;20102;-84
2023/04/12 12:21:00;;;;;;;8.18;5.43;;;;;;;;;;6148278;28;20401;-84
2023/04/12 12:24:01;;;;;;;8.20;4.20;;;;;;;;;;6147039;29;20118;-85
2023/04/12 12:27:02;;;;;;;7.27;5.33;;;;;;;;;;6146841;29;20144;-84
2023/04/12 12:30:03;;;;;;;7.65;4.65;;;;;;;;;;6147906;28;20023;-85
2023/04/12 12:33:04;;;;;;;;;;;;;;;;;;6142989;28;20126;-83
2023/04/12 12:36:05;;;;;;;5.97;3.97;;;;;;;;;;6149176;29;19918;-84
2023/04/12 12:39:09;;;;;;;7.80;3.85;;;;;;;;;;6149106;28;20030;-83
2023/04/12 12:42:10;;;;;;;7.20;4.40;;;;;;;;;;6148745;29;20043;-83
2023/04/12 12:45:12;;;;;;;7.28;3.50;;;;;;;;;;6147594;29;20081;-83
2023/04/12 12:48:13;;;;;;;7.55;3.92;;;;;;;;;;6148242;29;20058;-84
2023/04/12 12:51:16;;;;;;;4.57;3.53;;;;;;;;;;6148049;29;20420;-85
2023/04/12 12:54:16;;;;;;;7.65;4.30;;;;;;;;;;6147235;29;20023;-84
2023/04/12 12:57:17;;;;;;;7.53;4.00;;;;;;;;;;6147195;29;20050;-85
2023/04/12 13:00:18;;;;;;;6.32;3.75;;;;;;;;;;6148626;29;20023;-84
2023/04/12 13:03:18;;;;;;;9.18;3.70;;;;;;;;;;6160320;28;20047;-84
2023/04/12 13:06:18;;;;;;;6.82;3.55;;;;;;;;;;6161052;28;20102;-84
2023/04/12 13:09:18;;;;;;;5.83;3.93;;;;;;;;;;6157741;28;20034;-83
2023/04/12 13:12:20;;;;;;;6.37;4.07;;;;;;;;;;6147297;28;20041;-82
2023/04/12 13:15:21;;;;;;;8.73;3.65;;;;;;;;;;6146847;28;20027;-83
2023/04/12 13:18:21;;;;;;;8.07;4.50;;;;;;;;;;6143513;28;20058;-84
2023/04/12 13:21:21;;;;;;;6.20;3.73;;;;;;;;;;6160958;28;20286;-81
2023/04/12 13:24:22;;;;;;;7.07;3.65;;;;;;;;;;6163032;28;20039;-80
2023/04/12 13:27:22;;;;;;;7.13;4.03;;;;;;;;;;6164733;28;20019;-78
2023/04/12 13:30:22;;;;;;;7.37;4.53;;;;;;;;;;6159040;28;20031;-83
2023/04/12 13:33:22;;;;;;;8.90;3.83;;;;;;;;;;6141742;28;20038;-82
2023/04/12 13:36:22;;;;;;;7.10;3.93;;;;;;;;;;6145918;28;20026;-84
2023/04/12 13:39:23;;;;;;;6.97;4.28;;;;;;;;;;6149086;28;20094;-84
2023/04/12 13:42:25;;;;;;;9.30;3.73;;;;;;;;;;6148580;29;20062;-84
2023/04/12 13:45:26;;;;;;;8.60;3.40;;;;;;;;;;6144896;28;20031;-84
2023/04/12 13:48:26;;;;;;;9.67;4.67;;;;;;;;;;6148011;29;20019;-83
2023/04/12 13:51:27;;;;;;;6.47;3.97;;;;;;;;;;6148707;28;20026;-83
2023/04/12 13:54:27;;;;;;;7.33;5.10;;;;;;;;;;6149181;28;20019;-84
2023/04/12 13:57:29;;;;;;;6.87;3.37;;;;;;;;;;6146869;29;20361;-84
2023/04/12 14:00:29;;;;;;;5.25;3.38;;;;;;;;;;6147312;29;20070;-84
2023/04/12 14:03:29;;;;;;;7.23;3.10;;;;;;;;;;6148177;29;20035;-84
2023/04/12 14:06:30;;;;;;;7.77;3.97;;;;;;;;;;6152948;29;20035;-85
2023/04/12 14:09:30;;;;;;;4.60;3.33;;;;;;;;;;6147321;29;20655;-81
2023/04/12 14:12:31;;;;;;;4.30;2.80;;;;;;;;;;6143321;28;20031;-85
2023/04/12 14:15:32;;;;;;;5.47;3.35;;;;;;;;;;6147221;29;20019;-84
2023/04/12 14:18:32;;;;;;;7.43;3.22;;;;;;;;;;6150715;28;20079;-83
2023/04/12 14:21:34;;;;;;;7.40;4.67;;;;;;;;;;6152841;28;20049;-83
2023/04/12 14:24:35;;;;;;;5.68;2.92;;;;;;;;;;6152922;29;20038;-80
2023/04/12 14:27:35;;;;;;;8.17;2.70;;;;;;;;;;6155984;29;20027;-84
2023/04/12 14:30:36;;;;;;;7.27;3.97;;;;;;;;;;6147900;29;20298;-84
2023/04/12 14:33:36;;;;;;;8.37;4.80;;;;;;;;;;6148853;29;20023;-82
2023/04/12 14:36:36;;;;;;;9.37;3.83;;;;;;;;;;6149396;29;20027;-84
2023/04/12 14:39:36;;;;;;;7.73;3.80;;;;;;;;;;6149915;28;20027;-84
2023/04/12 14:42:37;;;;;;;4.60;3.07;;;;;;;;;;6149512;29;20655;-82
2023/04/12 14:45:38;;;;;;;4.07;2.63;;;;;;;;;;6146614;29;20038;-81
2023/04/12 14:48:39;;;;;;;3.83;2.80;;;;;;;;;;6147343;29;20050;-83
2023/04/12 14:51:40;;;;;;;5.10;3.17;;;;;;;;;;6150784;28;20058;-84
2023/04/12 14:54:40;;;;;;;5.80;2.70;;;;;;;;;;6142448;28;20034;-84
2023/04/12 14:57:41;;;;;;;5.63;2.90;;;;;;;;;;6151176;28;20019;-83
2023/04/12 15:00:41;;;;;;;9.77;4.47;;;;;;;;;;6151990;29;20027;-83
2023/04/12 15:03:41;;;;;;;9.13;4.50;;;;;;;;;;6152113;29;20027;-84
2023/04/12 15:06:42;;;;;;;15.20;6.17;;;;;;;;;;6152269;28;20027;-83
2023/04/12 15:09:45;;;;;;;4.65;2.92;;;;;;;;;;6152314;28;20086;-82
2023/04/12 15:12:46;;;;;;;7.53;4.85;;;;;;;;;;6119943;29;20127;-83
2023/04/12 15:15:46;;;;;;;6.67;3.77;;;;;;;;;;6136271;29;20402;-83
2023/04/12 15:18:48;;;;;;;7.93;4.37;;;;;;;;;;6154825;29;20031;-84
2023/04/12 15:21:53;;;;;;;5.22;3.38;;;;;;;;;;6161479;28;20043;-82
2023/04/12 15:24:55;;;;;;;5.32;3.05;;;;;;;;;;6179436;28;20043;-77
2023/04/12 15:27:55;;;;;;;;;;;;;;;;;;6183366;28;20027;-78
2023/04/12 15:30:55;;;;;;;;;;;;;;;;;;6162126;29;19928;-84
2023/04/12 15:33:56;;;;;;;;;;;;;;;;;;6155948;29;19924;-84
2023/04/12 15:36:57;;;;;;;;;;;;;;;;;;6156987;29;20336;-85
2023/04/12 15:39:58;;;;;;;;;;;;;;;;;;6181946;28;19970;-85
2023/04/12 15:43:00;;;;;;;;;;;;;;;;;;6175805;28;19913;-85
2023/04/12 15:46:01;;;;;;;;;;;;;;;;;;6159772;29;19910;-85
2023/04/12 15:49:01;;;;;;;;;;;;;;;;;;6158614;29;20506;-85
2023/04/12 15:52:01;;;;;;;;;;;;;;;;;;6155461;28;20415;-84
2023/04/12 15:55:03;;;;;;;;;;;;;;;;;;6154529;29;19911;-84
2023/04/12 15:58:04;;;;;;;;;;;;;;;;;;6158736;28;19993;-84
2023/04/12 16:01:06;;;;;;;;;;;;;;;;;;6154055;29;19929;-85
2023/04/12 16:04:06;;;;;;;;;;;;;;;;;;6157293;28;19915;-83
2023/04/12 16:07:07;;;;;;;;;;;;;;;;;;6155008;28;19921;-84
2023/04/12 16:10:07;;;;;;;;;;;;;;;;;;6153335;29;19910;-85
2023/04/12 16:13:09;;;;;;;;;;;;;;;;;;6146940;29;19914;-85
2023/04/12 16:16:11;;;;;;;;;;;;;;;;;;6153327;29;20026;-83
2023/04/12 16:19:11;;;;;;;;;;;;;;;;;;6150486;28;20352;-83
2023/04/12 16:22:11;;;;;;;;;;;;;;;;;;6152151;28;19996;-84
2023/04/12 16:25:12;;;;;;;;;;;;;;;;;;6150602;29;19921;-83
2023/04/12 16:28:13;;;;;;;;;;;;;;;;;;6147402;28;19915;-84
2023/04/12 16:31:18;;;;;;;;;;;;;;;;;;6149826;28;19914;-83
2023/04/12 16:34:20;;;;;;;;;;;;;;;;;;6148570;28;20377;-83
2023/04/12 16:37:20;;;;;;;;;;;;;;;;;;6151506;29;20001;-84
2023/04/12 16:40:21;;;;;;;;;;;;;;;;;;6151734;28;19915;-84
2023/04/12 16:43:21;;;;;;;;;;;;;;;;;;6153015;29;20066;-84
2023/04/12 16:46:21;;;;;;;;;;;;;;;;;;6148985;29;20381;-84
2023/04/12 16:49:21;;;;;;;;;;;;;;;;;;6144773;28;19961;-84
2023/04/12 16:52:22;;;;;;;;;;;;;;;;;;6150199;28;19925;-84
2023/04/12 16:55:24;;;;;;;;;;;;;;;;;;6156827;28;19914;-81
2023/04/12 16:58:24;;;;;;;;;;;;;;;;;;6169290;28;19911;-85
2023/04/12 17:01:24;;;;;;;;;;;;;;;;;;6165042;29;19920;-83
2023/04/12 17:04:25;;;;;;;;;;;;;;;;;;6153145;29;19926;-84
2023/04/12 17:07:25;;;;;;;;;;;;;;;;;;6151089;28;20003;-82
2023/04/12 17:10:26;;;;;;;;;;;;;;;;;;6153488;29;19973;-82
2023/04/12 17:13:27;;;;;;;;;;;;;;;;;;6170441;29;19940;-82
2023/04/12 17:16:27;;;;;;;;;;;;;;;;;;6172319;28;20017;-84
2023/04/12 17:19:27;;;;;;;;;;;;;;;;;;6161580;28;19914;-83
2023/04/12 17:22:30;;;;;;;;;;;;;;;;;;6157259;29;19914;-83
2023/04/12 17:25:31;;;;;;;;;;;;;;;;;;6158347;28;20176;-83
2023/04/12 17:28:33;;;;;;;;;;;;;;;;;;6156977;29;19906;-84
2023/04/12 17:31:33;;;;;;;;;;;;;;;;;;6156237;28;19922;-84
2023/04/12 17:34:33;;;;;;;;;;;;;;;;;;6156882;29;19914;-84
2023/04/12 17:37:33;;;;;;;;;;;;;;;;;;6166448;28;19922;-84
2023/04/12 17:40:36;;;;;;;;;;;;;;;;;;6156004;28;19906;-82
2023/04/12 17:43:37;;;;;;;;;;;;;;;;;;6159639;29;19917;-84
2023/04/12 17:46:39;;;;;;;;;;;;;;;;;;6162783;28;19969;-84
2023/04/12 17:49:39;;;;;;;;;;;;;;;;;;6158815;28;19947;-84
2023/04/12 17:52:39;;;;;;;;;;;;;;;;;;6158808;28;20007;-84
2023/04/12 17:55:40;;;;;;;;;;;;;;;;;;6161648;28;19911;-82
2023/04/12 17:58:40;;;;;;;;;;;;;;;;;;6158810;28;19910;-84
2023/04/12 18:01:42;;;;;;;;;;;;;;;;;;6160402;28;19926;-84
2023/04/12 18:04:42;;;;;;;;;;;;;;;;;;6160783;28;19961;-84
2023/04/12 18:07:42;;;;;;;;;;;;;;;;;;6155181;28;19906;-84
2023/04/12 18:10:42;;;;;;;;;;;;;;;;;;6158170;29;20008;-84
2023/04/12 18:13:42;;;;;;;;;;;;;;;;;;6154210;28;19926;-84